메인 페이지
METAR-TAF:

METAR-TAF

공항 :

마리스칼 수크레 국제공항

키토, 에콰도르

위도: 0-06-48S, 경도: 78-21-31W, 고도: 2400m

현재 날씨관측

예보는 18분 전, 12:21시(UTC)에 발표되었습니다.
남남동3kt
온도 11°C
습도 76%
기압 1027 hPa
시정 10km 이상
고도 4000ft 상공 구름 조금

METAR: SEQM 221221Z 16003KT 9999 FEW040 11/07 Q1027 NOSIG RMK A3034

시각: 07:39 (12:39 UTC)

예보

예보는 2 시간 59분 전, 09:40시(UTC)에 발표되었습니다.
예보 대상 시간: 22일 12시부터 23일 12시까지 (UTC)
여러 방향의 바람 3kt
시정 10km 이상
고도 3000ft 상공 구름 조금
고도 10000ft 상공 구름 보통
22일 1800시부터 (UTC)
남동14kt
시정 10km 이상
고도 4000ft 상공 구름 보통
22일 2300시부터 (UTC)
여러 방향의 바람 3kt
시정 10km 이상
고도 3300ft 상공 구름 많음
23일 0600시부터 (UTC)
동남동6kt
시정 10km 이상
고도 3000ft 상공 구름 조금

TAF: SEQM 220940Z 2212/2312 VRB03KT 9999 FEW030 SCT100 FM221800 14014KT 9999 SCT040 FM222300 VRB03KT 9999 BKN033 FM230600 12006KT 9999 FEW030 TX24/2219Z TN07/2311Z

4,000개 이상의 공항 관측 자료 및 예보 (METAR 및 TAF 보고).

지도상에서 검색 가능한 기상관측소가 노란 점과 빨간 점으로 표시되어 있습니다.

기상관측소 명을 보려면 표시 위로 마우스를 이동하세요.

날씨 관측과 예보를 보려면 클릭하세요.

지도 변경 : 확대하려면 엑스 표시가 있는 녹색 버튼, 축소하려면 빼기 표시가 있는 녹색 버튼, 다음 페이지의 지도를 보려면 녹색 화살표를 클릭하세요.


METAR-TAF: